GIA009 WAHI-WIII
Flight info
| Callsign | GIA009 |
|---|---|
| Flight time | 0h 48m |
| Altitude | 32000 |
| Route | CA W17S IMU |
| Aircraft | B738/M-SDE2E3FGHIRWXY/LB1 |
Departure
| Time | 2026-04-25 13:39 |
|---|---|
| Airport | Yogyakarta International Airport (WAHI) |
Arrival
| Time | 2026-04-25 14:27 |
|---|---|
| Airport | Soekarno-Hatta International Airport (WIII) |
| Time | Latitude | Longitude | Altitude | Speed | Heading |
|---|---|---|---|---|---|
| 2026-04-25 13:21 | -7.90107 | 110.05871 | 37 ft | 0 kts | 21° |
| 2026-04-25 13:32 | -7.90116 | 110.05867 | 40 ft | 4 kts | 21° |
| 2026-04-25 13:32 | -7.90141 | 110.05857 | 37 ft | 4 kts | 21° |
| 2026-04-25 13:32 | -7.90166 | 110.05847 | 39 ft | 4 kts | 26° |
| 2026-04-25 13:33 | -7.90189 | 110.05833 | 40 ft | 4 kts | 45° |
| 2026-04-25 13:33 | -7.90199 | 110.05816 | 38 ft | 2 kts | 109° |
| 2026-04-25 13:33 | -7.90198 | 110.05815 | 37 ft | 1 kts | 110° |
| 2026-04-25 13:35 | -7.90199 | 110.05815 | 38 ft | 0 kts | 110° |
| 2026-04-25 13:35 | -7.90214 | 110.05858 | 40 ft | 13 kts | 110° |
| 2026-04-25 13:35 | -7.90260 | 110.05984 | 38 ft | 25 kts | 110° |
| 2026-04-25 13:35 | -7.90335 | 110.06182 | 40 ft | 35 kts | 110° |
| 2026-04-25 13:36 | -7.90427 | 110.06425 | 40 ft | 32 kts | 111° |
| 2026-04-25 13:36 | -7.90520 | 110.06499 | 40 ft | 19 kts | 196° |
| 2026-04-25 13:36 | -7.90629 | 110.06499 | 41 ft | 19 kts | 126° |
| 2026-04-25 13:36 | -7.90691 | 110.06658 | 39 ft | 29 kts | 110° |
| 2026-04-25 13:37 | -7.90771 | 110.06879 | 43 ft | 38 kts | 110° |
| 2026-04-25 13:37 | -7.90851 | 110.07099 | 44 ft | 20 kts | 109° |
| 2026-04-25 13:37 | -7.90919 | 110.07221 | 41 ft | 19 kts | 161° |
| 2026-04-25 13:37 | -7.90983 | 110.07159 | 45 ft | 18 kts | 250° |
| 2026-04-25 13:38 | -7.91021 | 110.07086 | 43 ft | 5 kts | 255° |
| 2026-04-25 13:38 | -7.91013 | 110.07037 | 46 ft | 20 kts | 287° |
| 2026-04-25 13:38 | -7.90858 | 110.06614 | 44 ft | 108 kts | 290° |
| 2026-04-25 13:38 | -7.90511 | 110.05651 | 69 ft | 179 kts | 289° |
| 2026-04-25 13:39 | -7.90048 | 110.04379 | 779 ft | 197 kts | 288° |
| 2026-04-25 13:39 | -7.89571 | 110.03059 | 1694 ft | 213 kts | 304° |
| 2026-04-25 13:39 | -7.88369 | 110.02058 | 1982 ft | 240 kts | 333° |
| 2026-04-25 13:39 | -7.86808 | 110.01255 | 2294 ft | 261 kts | 333° |
| 2026-04-25 13:40 | -7.85180 | 110.00379 | 2992 ft | 267 kts | 332° |
| 2026-04-25 13:40 | -7.83540 | 109.99442 | 3952 ft | 268 kts | 331° |
| 2026-04-25 13:40 | -7.81952 | 109.98492 | 4841 ft | 271 kts | 330° |
| 2026-04-25 13:40 | -7.80329 | 109.97487 | 5673 ft | 276 kts | 330° |
| 2026-04-25 13:41 | -7.78687 | 109.96449 | 6460 ft | 281 kts | 329° |
| 2026-04-25 13:41 | -7.77028 | 109.95384 | 7231 ft | 285 kts | 329° |
| 2026-04-25 13:41 | -7.75353 | 109.94300 | 8004 ft | 289 kts | 329° |
| 2026-04-25 13:41 | -7.73650 | 109.93192 | 8788 ft | 292 kts | 328° |
| 2026-04-25 13:42 | -7.71932 | 109.92071 | 9560 ft | 297 kts | 328° |
| 2026-04-25 13:42 | -7.70184 | 109.90929 | 10282 ft | 301 kts | 328° |
| 2026-04-25 13:42 | -7.68420 | 109.89776 | 10997 ft | 304 kts | 328° |
| 2026-04-25 13:42 | -7.66629 | 109.88606 | 11718 ft | 308 kts | 328° |
| 2026-04-25 13:43 | -7.64843 | 109.87443 | 12422 ft | 311 kts | 329° |
| 2026-04-25 13:43 | -7.62965 | 109.86332 | 13110 ft | 317 kts | 332° |
| 2026-04-25 13:43 | -7.60990 | 109.85230 | 13058 ft | 324 kts | 333° |
| 2026-04-25 13:43 | -7.59041 | 109.84140 | 13110 ft | 318 kts | 332° |
| 2026-04-25 13:44 | -7.57120 | 109.83060 | 13119 ft | 315 kts | 332° |
| 2026-04-25 13:44 | -7.55346 | 109.81769 | 13117 ft | 319 kts | 313° |
| 2026-04-25 13:44 | -7.53988 | 109.79937 | 13254 ft | 336 kts | 305° |
| 2026-04-25 13:44 | -7.52642 | 109.77916 | 13442 ft | 357 kts | 304° |
| 2026-04-25 13:45 | -7.51246 | 109.75783 | 13816 ft | 369 kts | 304° |
| 2026-04-25 13:45 | -7.49821 | 109.73613 | 14368 ft | 373 kts | 304° |
| 2026-04-25 13:45 | -7.48390 | 109.71452 | 14986 ft | 375 kts | 304° |
| 2026-04-25 13:45 | -7.46932 | 109.69269 | 15591 ft | 377 kts | 305° |
| 2026-04-25 13:46 | -7.45454 | 109.67070 | 16152 ft | 381 kts | 305° |
| 2026-04-25 13:46 | -7.43954 | 109.64849 | 16708 ft | 385 kts | 305° |
| 2026-04-25 13:46 | -7.42438 | 109.62613 | 17270 ft | 388 kts | 305° |
| 2026-04-25 13:46 | -7.40909 | 109.60360 | 17824 ft | 391 kts | 305° |
| 2026-04-25 13:47 | -7.39366 | 109.58087 | 18344 ft | 395 kts | 305° |
| 2026-04-25 13:47 | -7.37809 | 109.55795 | 18814 ft | 398 kts | 305° |
| 2026-04-25 13:47 | -7.36244 | 109.53493 | 19318 ft | 399 kts | 305° |
| 2026-04-25 13:47 | -7.34671 | 109.51178 | 19812 ft | 401 kts | 305° |
| 2026-04-25 13:48 | -7.33089 | 109.48850 | 20283 ft | 404 kts | 305° |
| 2026-04-25 13:48 | -7.31498 | 109.46510 | 20744 ft | 407 kts | 305° |
| 2026-04-25 13:48 | -7.29893 | 109.44150 | 21203 ft | 409 kts | 305° |
| 2026-04-25 13:48 | -7.28281 | 109.41780 | 21664 ft | 411 kts | 305° |
| 2026-04-25 13:49 | -7.26661 | 109.39397 | 22110 ft | 414 kts | 305° |
| 2026-04-25 13:49 | -7.25030 | 109.36999 | 22550 ft | 416 kts | 305° |
| 2026-04-25 13:49 | -7.23387 | 109.34584 | 22960 ft | 419 kts | 304° |
| 2026-04-25 13:49 | -7.21732 | 109.32151 | 23362 ft | 422 kts | 304° |
| 2026-04-25 13:50 | -7.20064 | 109.29701 | 23732 ft | 425 kts | 305° |
| 2026-04-25 13:50 | -7.18389 | 109.27239 | 24061 ft | 428 kts | 305° |
| 2026-04-25 13:50 | -7.16704 | 109.24764 | 24380 ft | 430 kts | 305° |
| 2026-04-25 13:50 | -7.15006 | 109.22270 | 24711 ft | 433 kts | 305° |
| 2026-04-25 13:51 | -7.13300 | 109.19765 | 25050 ft | 435 kts | 305° |
| 2026-04-25 13:51 | -7.11585 | 109.17247 | 25365 ft | 437 kts | 305° |
| 2026-04-25 13:51 | -7.09884 | 109.14749 | 25682 ft | 439 kts | 305° |
| 2026-04-25 13:51 | -7.08127 | 109.12170 | 26011 ft | 441 kts | 305° |
| 2026-04-25 13:52 | -7.06388 | 109.09617 | 26337 ft | 443 kts | 305° |
| 2026-04-25 13:52 | -7.04663 | 109.07086 | 26650 ft | 445 kts | 305° |
| 2026-04-25 13:52 | -7.02905 | 109.04507 | 26949 ft | 448 kts | 305° |
| 2026-04-25 13:52 | -7.01143 | 109.01921 | 27234 ft | 450 kts | 305° |
| 2026-04-25 13:53 | -6.99364 | 108.99312 | 27517 ft | 453 kts | 305° |
| 2026-04-25 13:53 | -6.97576 | 108.96690 | 27796 ft | 455 kts | 305° |
| 2026-04-25 13:53 | -6.95781 | 108.94058 | 28087 ft | 457 kts | 305° |
| 2026-04-25 13:53 | -6.93980 | 108.91418 | 28361 ft | 459 kts | 305° |
| 2026-04-25 13:54 | -6.92169 | 108.88763 | 28648 ft | 461 kts | 305° |
| 2026-04-25 13:54 | -6.90348 | 108.86094 | 28907 ft | 463 kts | 305° |
| 2026-04-25 13:54 | -6.88518 | 108.83411 | 29167 ft | 466 kts | 305° |
| 2026-04-25 13:54 | -6.86683 | 108.80724 | 29414 ft | 468 kts | 305° |
| 2026-04-25 13:55 | -6.84838 | 108.78020 | 29664 ft | 470 kts | 305° |
| 2026-04-25 13:55 | -6.82978 | 108.75295 | 29939 ft | 471 kts | 305° |
| 2026-04-25 13:55 | -6.81143 | 108.72607 | 30237 ft | 471 kts | 305° |
| 2026-04-25 13:55 | -6.79291 | 108.69896 | 30579 ft | 469 kts | 305° |
| 2026-04-25 13:56 | -6.77446 | 108.67193 | 30943 ft | 467 kts | 305° |
| 2026-04-25 13:56 | -6.75609 | 108.64503 | 31283 ft | 466 kts | 305° |
| 2026-04-25 13:56 | -6.73771 | 108.61813 | 31603 ft | 465 kts | 305° |
| 2026-04-25 13:56 | -6.71927 | 108.59143 | 31907 ft | 465 kts | 308° |
| 2026-04-25 13:57 | -6.69784 | 108.56682 | 31920 ft | 467 kts | 317° |
| 2026-04-25 13:57 | -6.64594 | 108.52916 | 31950 ft | 461 kts | 332° |
| 2026-04-25 13:58 | -6.58964 | 108.49842 | 31938 ft | 460 kts | 333° |
| 2026-04-25 13:58 | -6.53345 | 108.46762 | 31940 ft | 459 kts | 332° |
| 2026-04-25 13:59 | -6.47782 | 108.43582 | 31903 ft | 459 kts | 331° |
| 2026-04-25 13:59 | -6.42198 | 108.40465 | 31924 ft | 459 kts | 332° |
| 2026-04-25 14:00 | -6.37543 | 108.37903 | 31932 ft | 459 kts | 332° |
| 2026-04-25 14:00 | -6.31022 | 108.34234 | 31929 ft | 460 kts | 329° |
| 2026-04-25 14:00 | -6.28526 | 108.32220 | 31936 ft | 461 kts | 315° |
| 2026-04-25 14:01 | -6.26327 | 108.29921 | 31935 ft | 462 kts | 314° |
| 2026-04-25 14:01 | -6.21943 | 108.25184 | 31933 ft | 463 kts | 314° |
| 2026-04-25 14:02 | -6.17487 | 108.20498 | 31935 ft | 464 kts | 315° |
| 2026-04-25 14:02 | -6.12991 | 108.15845 | 31932 ft | 464 kts | 315° |
| 2026-04-25 14:03 | -6.08487 | 108.11207 | 31918 ft | 463 kts | 315° |
| 2026-04-25 14:03 | -6.03976 | 108.06578 | 31902 ft | 464 kts | 315° |
| 2026-04-25 14:04 | -5.99453 | 108.01933 | 31906 ft | 465 kts | 314° |
| 2026-04-25 14:04 | -5.97493 | 107.99343 | 31867 ft | 467 kts | 298° |
| 2026-04-25 14:04 | -5.96321 | 107.96309 | 31855 ft | 468 kts | 282° |
| 2026-04-25 14:04 | -5.95995 | 107.93060 | 31840 ft | 467 kts | 270° |
| 2026-04-25 14:05 | -5.96008 | 107.89841 | 31844 ft | 466 kts | 269° |
| 2026-04-25 14:05 | -5.96069 | 107.86612 | 31629 ft | 457 kts | 268° |
| 2026-04-25 14:05 | -5.96126 | 107.83433 | 31059 ft | 457 kts | 269° |
| 2026-04-25 14:05 | -5.96160 | 107.80227 | 30370 ft | 459 kts | 269° |
| 2026-04-25 14:06 | -5.96174 | 107.77001 | 29574 ft | 463 kts | 269° |
| 2026-04-25 14:06 | -5.96175 | 107.73762 | 28688 ft | 466 kts | 269° |
| 2026-04-25 14:06 | -5.96171 | 107.70499 | 27809 ft | 469 kts | 269° |
| 2026-04-25 14:06 | -5.96168 | 107.67213 | 26910 ft | 472 kts | 269° |
| 2026-04-25 14:07 | -5.96166 | 107.63908 | 26144 ft | 473 kts | 269° |
| 2026-04-25 14:07 | -5.96166 | 107.60673 | 25685 ft | 455 kts | 269° |
| 2026-04-25 14:07 | -5.96166 | 107.57544 | 25182 ft | 442 kts | 269° |
| 2026-04-25 14:07 | -5.96167 | 107.54500 | 24693 ft | 429 kts | 269° |
| 2026-04-25 14:08 | -5.96167 | 107.51540 | 24208 ft | 419 kts | 269° |
| 2026-04-25 14:08 | -5.96168 | 107.48651 | 23739 ft | 409 kts | 269° |
| 2026-04-25 14:08 | -5.96168 | 107.46776 | 23417 ft | 403 kts | 269° |
| 2026-04-25 14:08 | -5.96168 | 107.43045 | 22748 ft | 395 kts | 269° |
| 2026-04-25 14:09 | -5.96168 | 107.41223 | 22450 ft | 394 kts | 269° |
| 2026-04-25 14:09 | -5.96168 | 107.37541 | 21845 ft | 394 kts | 269° |
| 2026-04-25 14:09 | -5.96168 | 107.34795 | 21393 ft | 391 kts | 270° |
| 2026-04-25 14:09 | -5.96167 | 107.33911 | 21242 ft | 388 kts | 270° |
| 2026-04-25 14:10 | -5.96166 | 107.30291 | 20667 ft | 386 kts | 270° |
| 2026-04-25 14:10 | -5.96161 | 107.26733 | 20096 ft | 384 kts | 270° |
| 2026-04-25 14:10 | -5.96156 | 107.24045 | 19646 ft | 386 kts | 270° |
| 2026-04-25 14:10 | -5.96153 | 107.22222 | 19356 ft | 385 kts | 270° |
| 2026-04-25 14:11 | -5.96148 | 107.19533 | 18899 ft | 385 kts | 270° |
| 2026-04-25 14:11 | -5.96144 | 107.16854 | 18456 ft | 379 kts | 270° |
| 2026-04-25 14:11 | -5.96139 | 107.14237 | 17999 ft | 370 kts | 270° |
| 2026-04-25 14:11 | -5.96135 | 107.11674 | 17560 ft | 365 kts | 270° |
| 2026-04-25 14:12 | -5.96130 | 107.09121 | 17136 ft | 365 kts | 270° |
| 2026-04-25 14:12 | -5.96125 | 107.06597 | 16721 ft | 365 kts | 270° |
| 2026-04-25 14:12 | -5.96120 | 107.04041 | 16301 ft | 365 kts | 270° |
| 2026-04-25 14:12 | -5.96115 | 107.01495 | 15676 ft | 364 kts | 270° |
| 2026-04-25 14:13 | -5.96109 | 106.98956 | 15063 ft | 362 kts | 270° |
| 2026-04-25 14:13 | -5.96103 | 106.96438 | 14437 ft | 360 kts | 271° |
| 2026-04-25 14:13 | -5.96096 | 106.93925 | 13804 ft | 358 kts | 271° |
| 2026-04-25 14:13 | -5.96090 | 106.91428 | 13112 ft | 357 kts | 271° |
| 2026-04-25 14:14 | -5.96083 | 106.88946 | 12467 ft | 353 kts | 271° |
| 2026-04-25 14:14 | -5.96077 | 106.86498 | 11844 ft | 350 kts | 271° |
| 2026-04-25 14:14 | -5.96070 | 106.84063 | 11269 ft | 346 kts | 271° |
| 2026-04-25 14:14 | -5.96064 | 106.81664 | 10700 ft | 342 kts | 271° |
| 2026-04-25 14:15 | -5.96090 | 106.79292 | 10120 ft | 339 kts | 265° |
| 2026-04-25 14:15 | -5.96425 | 106.77771 | 9876 ft | 332 kts | 249° |
| 2026-04-25 14:15 | -5.97531 | 106.75067 | 9878 ft | 303 kts | 247° |
| 2026-04-25 14:15 | -5.98333 | 106.73137 | 9604 ft | 298 kts | 247° |
| 2026-04-25 14:16 | -5.99125 | 106.71216 | 9307 ft | 297 kts | 248° |
| 2026-04-25 14:16 | -5.99910 | 106.69300 | 8980 ft | 297 kts | 248° |
| 2026-04-25 14:16 | -6.00698 | 106.67368 | 8527 ft | 298 kts | 248° |
| 2026-04-25 14:16 | -6.01477 | 106.65447 | 8081 ft | 296 kts | 248° |
| 2026-04-25 14:17 | -6.02249 | 106.63542 | 7649 ft | 293 kts | 248° |
| 2026-04-25 14:17 | -6.03014 | 106.61651 | 7224 ft | 291 kts | 248° |
| 2026-04-25 14:17 | -6.03773 | 106.59778 | 6825 ft | 287 kts | 247° |
| 2026-04-25 14:17 | -6.04512 | 106.57950 | 6431 ft | 278 kts | 247° |
| 2026-04-25 14:18 | -6.05229 | 106.56176 | 5989 ft | 271 kts | 247° |
| 2026-04-25 14:18 | -6.05930 | 106.54438 | 5540 ft | 265 kts | 247° |
| 2026-04-25 14:18 | -6.06619 | 106.52733 | 5092 ft | 260 kts | 247° |
| 2026-04-25 14:18 | -6.07284 | 106.51084 | 4671 ft | 256 kts | 247° |
| 2026-04-25 14:19 | -6.07956 | 106.49420 | 4268 ft | 250 kts | 247° |
| 2026-04-25 14:19 | -6.08590 | 106.47850 | 3991 ft | 241 kts | 247° |
| 2026-04-25 14:19 | -6.09207 | 106.46321 | 3710 ft | 232 kts | 246° |
| 2026-04-25 14:19 | -6.09802 | 106.44845 | 3437 ft | 223 kts | 247° |
| 2026-04-25 14:20 | -6.10415 | 106.43439 | 3187 ft | 216 kts | 236° |
| 2026-04-25 14:20 | -6.11094 | 106.42722 | 3012 ft | 207 kts | 209° |
| 2026-04-25 14:20 | -6.12882 | 106.42289 | 2746 ft | 200 kts | 172° |
| 2026-04-25 14:20 | -6.14259 | 106.42482 | 2522 ft | 199 kts | 166° |
| 2026-04-25 14:21 | -6.15610 | 106.42727 | 2291 ft | 196 kts | 166° |
| 2026-04-25 14:21 | -6.16866 | 106.43188 | 2064 ft | 194 kts | 138° |
| 2026-04-25 14:21 | -6.17619 | 106.44246 | 2027 ft | 183 kts | 104° |
| 2026-04-25 14:21 | -6.17794 | 106.45467 | 1994 ft | 173 kts | 95° |
| 2026-04-25 14:22 | -6.17917 | 106.46656 | 1992 ft | 169 kts | 95° |
| 2026-04-25 14:22 | -6.18037 | 106.47832 | 1999 ft | 170 kts | 95° |
| 2026-04-25 14:22 | -6.18047 | 106.49011 | 1974 ft | 170 kts | 71° |
| 2026-04-25 14:22 | -6.17553 | 106.50086 | 1998 ft | 170 kts | 69° |
| 2026-04-25 14:23 | -6.17148 | 106.51162 | 1989 ft | 164 kts | 69° |
| 2026-04-25 14:23 | -6.16740 | 106.52212 | 1991 ft | 160 kts | 69° |
| 2026-04-25 14:23 | -6.16337 | 106.53229 | 2003 ft | 153 kts | 69° |
| 2026-04-25 14:23 | -6.15946 | 106.54212 | 1955 ft | 150 kts | 69° |
| 2026-04-25 14:24 | -6.15552 | 106.55202 | 1793 ft | 155 kts | 69° |
| 2026-04-25 14:24 | -6.15153 | 106.56204 | 1603 ft | 153 kts | 69° |
| 2026-04-25 14:24 | -6.14759 | 106.57194 | 1402 ft | 152 kts | 69° |
| 2026-04-25 14:24 | -6.14365 | 106.58185 | 1197 ft | 153 kts | 68° |
| 2026-04-25 14:25 | -6.13972 | 106.59171 | 1019 ft | 153 kts | 68° |
| 2026-04-25 14:25 | -6.13581 | 106.60154 | 822 ft | 152 kts | 68° |
| 2026-04-25 14:25 | -6.13183 | 106.61154 | 658 ft | 157 kts | 68° |
| 2026-04-25 14:25 | -6.12916 | 106.61825 | 541 ft | 155 kts | 68° |
| 2026-04-25 14:26 | -6.12380 | 106.63146 | 220 ft | 152 kts | 69° |
| 2026-04-25 14:26 | -6.12015 | 106.64111 | 46 ft | 139 kts | 68° |
| 2026-04-25 14:26 | -6.11687 | 106.64919 | 43 ft | 111 kts | 68° |
| 2026-04-25 14:26 | -6.11444 | 106.65533 | 39 ft | 77 kts | 68° |
| 2026-04-25 14:27 | -6.11288 | 106.65921 | 38 ft | 43 kts | 69° |
| 2026-04-25 14:27 | -6.11250 | 106.66109 | 39 ft | 22 kts | 86° |
| 2026-04-25 14:27 | -6.11262 | 106.66213 | 39 ft | 9 kts | 99° |
| 2026-04-25 14:27 | -6.11281 | 106.66259 | 39 ft | 2 kts | 128° |
| 2026-04-25 14:28 | -6.11293 | 106.66269 | 38 ft | 5 kts | 145° |
| 2026-04-25 14:28 | -6.11344 | 106.66293 | 38 ft | 11 kts | 160° |
| 2026-04-25 14:28 | -6.11422 | 106.66324 | 37 ft | 14 kts | 158° |
| 2026-04-25 14:28 | -6.11520 | 106.66364 | 37 ft | 15 kts | 159° |
| 2026-04-25 14:29 | -6.11626 | 106.66411 | 36 ft | 14 kts | 139° |
| 2026-04-25 14:29 | -6.11642 | 106.66442 | 37 ft | 4 kts | 99° |
| 2026-04-25 14:29 | -6.11660 | 106.66486 | 36 ft | 6 kts | 141° |
| 2026-04-25 14:29 | -6.11687 | 106.66500 | 37 ft | 3 kts | 156° |
| 2026-04-25 14:30 | -6.11688 | 106.66501 | 37 ft | 0 kts | 156° |
| 2026-04-25 14:30 | -6.11700 | 106.66505 | 37 ft | 3 kts | 160° |
| 2026-04-25 14:30 | -6.11716 | 106.66512 | 37 ft | 2 kts | 160° |
| 2026-04-25 14:31 | -6.11721 | 106.66514 | 37 ft | 1 kts | 154° |
| 2026-04-25 14:31 | -6.11726 | 106.66517 | 36 ft | 1 kts | 147° |
| 2026-04-25 14:31 | -6.11729 | 106.66519 | 37 ft | 0 kts | 143° |
| 2026-04-25 14:31 | -6.11731 | 106.66521 | 37 ft | 0 kts | 142° |
| 2026-04-25 14:32 | -6.11734 | 106.66523 | 37 ft | 0 kts | 140° |
| 2026-04-25 14:32 | -6.11735 | 106.66524 | 37 ft | 0 kts | 139° |
| 2026-04-25 14:32 | -6.11736 | 106.66525 | 37 ft | 0 kts | 139° |
| 2026-04-25 14:32 | -6.11739 | 106.66528 | 37 ft | 0 kts | 137° |